Aviation Digital Data Service (ADDS)

Output produced by METARs form (2055 UTC 29 May 2017)
found at http://www.aviationweather.gov/adds/metars/
 
KWJF 291720Z 2918/3018 VRB03KT P6SM SCT200 
     FM292000 24012KT P6SM SCT200 
     FM292200 23018G28KT P6SM SCT200 
     FM300200 24014KT P6SM SCT200 
     FM300800 VRB03KT P6SM SCT200
       
KWMC 291720Z 2918/3018 04007KT P6SM FEW150
       
TAF AMD KWRB 291920Z 2919/3019 26010G15KT 9999 FEW040 BKN060 QNH2994INS 
     TEMPO 2919/2921 VRB12G18KT 8000 -TSRA BKN030CB 
     TEMPO 2921/2923 VRB15G25KT 6000 -TSRA BKN025CB 
     BECMG 3000/3001 26006KT 9999 SCT040 QNH3002INS 
     BECMG 3014/3015 28012G18KT 9999 FEW040 QNH3008INS TX33/2920Z TN20/3013Z
       
TAF KWRI 291805Z 2918/3024 06009KT 9999 OVC010 QNH2991INS 
     BECMG 3000/3001 08009KT 8000 BR BKN008 OVC020 QNH2999INS 
     BECMG 3004/3005 11009KT 6000 BR OVC006 QNH3005INS 
     BECMG 3017/3018 14012KT 9999 NSW OVC009 QNH3005INS TX16/2920Z TN12/3005Z
       
KWRL 291727Z 2918/3018 VRB05KT P6SM SCT060 
     FM292000 35008KT P6SM SCT070 
     FM300200 16005KT P6SM FEW100